This is the latest recevied weather packets stored in our database for station/object KF5WCW-1. If no packets are shown the sender has not sent any weather packets the latest 10 day(s).
| Time | Temp. | Humidity | Pressure | Rain* | Wind** | Luminosity | Snow |
|---|---|---|---|---|---|---|---|
| 1777219589 | 6.67° C | 74% | 0 hPa | 0 mm | - | - | - |
| 1777219289 | 6.67° C | 76% | 0 hPa | 0 mm | - | - | - |
| 1777218989 | 6.67° C | 74% | 0 hPa | 0 mm | - | - | - |
| 1777218689 | 7.22° C | 71% | 0 hPa | 0 mm | - | - | - |
| 1777218389 | 7.22° C | 68% | 0 hPa | 0 mm | - | - | - |
| 1777218089 | 7.78° C | 68% | 0 hPa | 0 mm | - | - | - |
| 1777217789 | 7.78° C | 68% | 0 hPa | 0 mm | - | - | - |
| 1777217489 | 7.78° C | 69% | 0 hPa | 0 mm | - | - | - |
| 1777217189 | 7.22° C | 68% | 0 hPa | 0 mm | - | - | - |
| 1777216889 | 7.78° C | 68% | 0 hPa | 0 mm | - | - | - |
| 1777216589 | 7.78° C | 70% | 0 hPa | 0 mm | - | - | - |
| 1777216289 | 7.22° C | 72% | 0 hPa | 0 mm | - | - | - |
| 1777215989 | 7.22° C | 74% | 0 hPa | 0 mm | - | - | - |
| 1777215689 | 7.22° C | 75% | 0 hPa | 0 mm | - | - | - |
| 1777215389 | 7.22° C | 76% | 0 hPa | 0 mm | - | - | - |
| 1777215089 | 7.22° C | 75% | 0 hPa | 0 mm | - | - | - |
| 1777214789 | 6.67° C | 77% | 0 hPa | 0 mm | - | - | - |
| 1777214489 | 6.11° C | 79% | 0 hPa | 0 mm | - | - | - |
| 1777214189 | 5.56° C | 81% | 0 hPa | 0 mm | - | - | - |
| 1777213889 | 5° C | 83% | 0 hPa | 0 mm | - | - | - |
| 1777213589 | 5° C | 84% | 0 hPa | 0 mm | - | - | - |
| 1777213290 | 5° C | 84% | 0 hPa | 0 mm | - | - | - |
| 1777212990 | 5° C | 84% | 0 hPa | 0 mm | - | - | - |
| 1777212690 | 5° C | 83% | 0 hPa | 0 mm | - | - | - |
| 1777212389 | 5.56° C | 80% | 0 hPa | 0 mm | - | - | - |
* Rain latest hour (hover to see other rain measurements)
** Current wind speed in m/s (hover to see current wind gust speed)